sensor_id;sensor_type;location;lat;lon;timestamp;P1;durP1;ratioP1;P2;durP2;ratioP2
2618;SDS011;1319;52.346;13.096;2023-07-08T00:01:35;8.23;;;7.20;;
2618;SDS011;1319;52.346;13.096;2023-07-08T00:04:00;14.60;;;8.33;;
2618;SDS011;1319;52.346;13.096;2023-07-08T00:06:26;36.03;;;12.23;;
2618;SDS011;1319;52.346;13.096;2023-07-08T00:08:51;18.70;;;9.23;;
2618;SDS011;1319;52.346;13.096;2023-07-08T00:11:16;19.00;;;9.60;;
2618;SDS011;1319;52.346;13.096;2023-07-08T00:13:42;15.87;;;9.73;;
2618;SDS011;1319;52.346;13.096;2023-07-08T00:16:08;24.40;;;10.30;;
2618;SDS011;1319;52.346;13.096;2023-07-08T00:18:34;13.67;;;8.87;;
2618;SDS011;1319;52.346;13.096;2023-07-08T00:20:59;11.30;;;8.60;;
2618;SDS011;1319;52.346;13.096;2023-07-08T00:23:25;13.13;;;8.70;;
2618;SDS011;1319;52.346;13.096;2023-07-08T00:25:50;10.57;;;8.97;;
2618;SDS011;1319;52.346;13.096;2023-07-08T00:28:20;12.10;;;8.37;;
2618;SDS011;1319;52.346;13.096;2023-07-08T00:30:46;9.50;;;8.50;;
2618;SDS011;1319;52.346;13.096;2023-07-08T00:33:11;11.47;;;8.10;;
2618;SDS011;1319;52.346;13.096;2023-07-08T00:35:37;13.60;;;8.60;;
2618;SDS011;1319;52.346;13.096;2023-07-08T00:40:37;13.27;;;8.23;;
2618;SDS011;1319;52.346;13.096;2023-07-08T00:43:03;14.23;;;8.93;;
2618;SDS011;1319;52.346;13.096;2023-07-08T00:48:05;10.10;;;8.80;;
2618;SDS011;1319;52.346;13.096;2023-07-08T00:50:30;13.37;;;9.00;;
2618;SDS011;1319;52.346;13.096;2023-07-08T00:55:39;11.43;;;9.10;;
2618;SDS011;1319;52.346;13.096;2023-07-08T00:58:05;11.50;;;9.30;;
2618;SDS011;1319;52.346;13.096;2023-07-08T01:00:30;14.77;;;9.43;;
2618;SDS011;1319;52.346;13.096;2023-07-08T01:02:55;11.20;;;9.03;;
2618;SDS011;1319;52.346;13.096;2023-07-08T01:05:22;12.93;;;9.90;;
2618;SDS011;1319;52.346;13.096;2023-07-08T01:07:54;14.43;;;9.00;;
2618;SDS011;1319;52.346;13.096;2023-07-08T01:10:22;10.30;;;8.80;;
2618;SDS011;1319;52.346;13.096;2023-07-08T01:12:51;9.83;;;8.27;;
2618;SDS011;1319;52.346;13.096;2023-07-08T01:15:18;11.33;;;8.70;;
2618;SDS011;1319;52.346;13.096;2023-07-08T01:17:45;11.63;;;9.10;;
2618;SDS011;1319;52.346;13.096;2023-07-08T01:20:10;12.97;;;9.33;;
2618;SDS011;1319;52.346;13.096;2023-07-08T01:22:38;11.20;;;9.03;;
2618;SDS011;1319;52.346;13.096;2023-07-08T01:25:03;13.27;;;9.40;;
2618;SDS011;1319;52.346;13.096;2023-07-08T01:27:30;11.33;;;9.03;;
2618;SDS011;1319;52.346;13.096;2023-07-08T01:29:57;13.17;;;9.60;;
2618;SDS011;1319;52.346;13.096;2023-07-08T01:32:23;11.63;;;9.33;;
2618;SDS011;1319;52.346;13.096;2023-07-08T01:34:48;15.23;;;9.87;;
2618;SDS011;1319;52.346;13.096;2023-07-08T01:38:10;12.40;;;9.77;;
2618;SDS011;1319;52.346;13.096;2023-07-08T01:42:41;17.40;;;9.80;;
2618;SDS011;1319;52.346;13.096;2023-07-08T01:45:10;13.70;;;9.57;;
2618;SDS011;1319;52.346;13.096;2023-07-08T01:47:36;13.07;;;10.30;;
2618;SDS011;1319;52.346;13.096;2023-07-08T01:50:01;11.80;;;9.27;;
2618;SDS011;1319;52.346;13.096;2023-07-08T01:52:27;12.73;;;10.00;;
2618;SDS011;1319;52.346;13.096;2023-07-08T01:54:55;11.97;;;9.53;;
2618;SDS011;1319;52.346;13.096;2023-07-08T01:57:20;14.07;;;10.73;;
2618;SDS011;1319;52.346;13.096;2023-07-08T01:59:46;12.50;;;10.17;;
2618;SDS011;1319;52.346;13.096;2023-07-08T02:02:11;14.03;;;10.60;;
2618;SDS011;1319;52.346;13.096;2023-07-08T02:04:36;10.67;;;9.57;;
2618;SDS011;1319;52.346;13.096;2023-07-08T02:07:01;14.90;;;10.50;;
2618;SDS011;1319;52.346;13.096;2023-07-08T02:09:27;13.10;;;9.90;;
2618;SDS011;1319;52.346;13.096;2023-07-08T02:11:53;13.43;;;10.30;;
2618;SDS011;1319;52.346;13.096;2023-07-08T02:14:18;12.87;;;10.13;;
2618;SDS011;1319;52.346;13.096;2023-07-08T02:16:43;16.57;;;10.43;;
2618;SDS011;1319;52.346;13.096;2023-07-08T02:19:09;12.07;;;10.30;;
2618;SDS011;1319;52.346;13.096;2023-07-08T02:21:35;12.70;;;10.50;;
2618;SDS011;1319;52.346;13.096;2023-07-08T02:24:00;12.50;;;10.17;;
2618;SDS011;1319;52.346;13.096;2023-07-08T02:26:25;13.90;;;9.90;;
2618;SDS011;1319;52.346;13.096;2023-07-08T02:28:51;16.87;;;10.57;;
2618;SDS011;1319;52.346;13.096;2023-07-08T02:31:16;13.27;;;10.47;;
2618;SDS011;1319;52.346;13.096;2023-07-08T02:33:42;14.60;;;10.43;;
2618;SDS011;1319;52.346;13.096;2023-07-08T02:36:07;11.87;;;10.43;;
2618;SDS011;1319;52.346;13.096;2023-07-08T02:38:32;12.17;;;10.40;;
2618;SDS011;1319;52.346;13.096;2023-07-08T02:40:57;13.40;;;10.63;;
2618;SDS011;1319;52.346;13.096;2023-07-08T02:43:23;13.60;;;10.23;;
2618;SDS011;1319;52.346;13.096;2023-07-08T02:45:49;12.63;;;10.37;;
2618;SDS011;1319;52.346;13.096;2023-07-08T02:48:14;14.67;;;9.67;;
2618;SDS011;1319;52.346;13.096;2023-07-08T02:50:39;13.60;;;10.40;;
2618;SDS011;1319;52.346;13.096;2023-07-08T02:53:05;12.93;;;10.13;;
2618;SDS011;1319;52.346;13.096;2023-07-08T02:55:30;16.37;;;10.23;;
2618;SDS011;1319;52.346;13.096;2023-07-08T02:57:55;11.23;;;9.67;;
2618;SDS011;1319;52.346;13.096;2023-07-08T03:00:21;11.03;;;9.87;;
2618;SDS011;1319;52.346;13.096;2023-07-08T03:02:46;13.23;;;10.70;;
2618;SDS011;1319;52.346;13.096;2023-07-08T03:05:11;13.00;;;10.73;;
2618;SDS011;1319;52.346;13.096;2023-07-08T03:07:36;14.37;;;11.23;;
2618;SDS011;1319;52.346;13.096;2023-07-08T03:10:02;13.63;;;10.67;;
2618;SDS011;1319;52.346;13.096;2023-07-08T03:12:27;12.47;;;10.20;;
2618;SDS011;1319;52.346;13.096;2023-07-08T03:14:52;12.17;;;10.17;;
2618;SDS011;1319;52.346;13.096;2023-07-08T03:17:17;15.30;;;10.50;;
2618;SDS011;1319;52.346;13.096;2023-07-08T03:19:44;12.47;;;10.17;;
2618;SDS011;1319;52.346;13.096;2023-07-08T03:22:09;15.00;;;10.50;;
2618;SDS011;1319;52.346;13.096;2023-07-08T03:24:34;12.73;;;10.43;;
2618;SDS011;1319;52.346;13.096;2023-07-08T03:26:59;17.70;;;10.77;;
2618;SDS011;1319;52.346;13.096;2023-07-08T03:29:29;13.00;;;11.17;;
2618;SDS011;1319;52.346;13.096;2023-07-08T03:31:54;14.50;;;11.63;;
2618;SDS011;1319;52.346;13.096;2023-07-08T03:34:20;12.27;;;10.23;;
2618;SDS011;1319;52.346;13.096;2023-07-08T03:36:46;14.13;;;10.90;;
2618;SDS011;1319;52.346;13.096;2023-07-08T03:39:17;12.60;;;11.07;;
2618;SDS011;1319;52.346;13.096;2023-07-08T03:41:42;13.37;;;10.40;;
2618;SDS011;1319;52.346;13.096;2023-07-08T03:44:08;13.17;;;11.03;;
2618;SDS011;1319;52.346;13.096;2023-07-08T03:46:33;14.13;;;10.77;;
2618;SDS011;1319;52.346;13.096;2023-07-08T03:48:58;12.00;;;9.90;;
2618;SDS011;1319;52.346;13.096;2023-07-08T03:51:26;12.13;;;9.60;;
2618;SDS011;1319;52.346;13.096;2023-07-08T03:53:52;13.13;;;9.83;;
2618;SDS011;1319;52.346;13.096;2023-07-08T03:56:17;13.70;;;10.13;;
2618;SDS011;1319;52.346;13.096;2023-07-08T03:58:42;14.57;;;10.40;;
2618;SDS011;1319;52.346;13.096;2023-07-08T04:01:10;14.47;;;10.80;;
2618;SDS011;1319;52.346;13.096;2023-07-08T04:03:38;14.37;;;11.03;;
2618;SDS011;1319;52.346;13.096;2023-07-08T04:06:03;12.63;;;11.07;;
2618;SDS011;1319;52.346;13.096;2023-07-08T04:08:28;13.87;;;10.40;;
2618;SDS011;1319;52.346;13.096;2023-07-08T04:10:54;14.03;;;10.87;;
2618;SDS011;1319;52.346;13.096;2023-07-08T04:13:19;16.83;;;10.90;;
2618;SDS011;1319;52.346;13.096;2023-07-08T04:15:44;12.50;;;10.57;;
2618;SDS011;1319;52.346;13.096;2023-07-08T04:18:09;13.50;;;11.23;;
2618;SDS011;1319;52.346;13.096;2023-07-08T04:20:35;12.37;;;10.93;;
2618;SDS011;1319;52.346;13.096;2023-07-08T04:23:00;14.23;;;11.50;;
2618;SDS011;1319;52.346;13.096;2023-07-08T04:25:26;14.87;;;11.93;;
2618;SDS011;1319;52.346;13.096;2023-07-08T04:27:51;14.50;;;10.93;;
2618;SDS011;1319;52.346;13.096;2023-07-08T04:30:23;12.07;;;10.73;;
2618;SDS011;1319;52.346;13.096;2023-07-08T04:32:50;12.80;;;9.97;;
2618;SDS011;1319;52.346;13.096;2023-07-08T04:35:15;13.70;;;10.37;;
2618;SDS011;1319;52.346;13.096;2023-07-08T04:37:40;13.33;;;10.37;;
2618;SDS011;1319;52.346;13.096;2023-07-08T04:40:07;11.87;;;10.03;;
2618;SDS011;1319;52.346;13.096;2023-07-08T04:42:38;13.77;;;10.87;;
2618;SDS011;1319;52.346;13.096;2023-07-08T04:45:04;12.93;;;10.43;;
2618;SDS011;1319;52.346;13.096;2023-07-08T04:47:30;14.40;;;10.53;;
2618;SDS011;1319;52.346;13.096;2023-07-08T04:49:58;12.07;;;10.77;;
2618;SDS011;1319;52.346;13.096;2023-07-08T04:52:23;13.87;;;11.00;;
2618;SDS011;1319;52.346;13.096;2023-07-08T04:54:48;13.67;;;11.10;;
2618;SDS011;1319;52.346;13.096;2023-07-08T04:57:13;11.83;;;10.47;;
2618;SDS011;1319;52.346;13.096;2023-07-08T04:59:41;18.93;;;11.03;;
2618;SDS011;1319;52.346;13.096;2023-07-08T05:02:06;12.23;;;9.97;;
2618;SDS011;1319;52.346;13.096;2023-07-08T05:04:32;11.77;;;10.50;;
2618;SDS011;1319;52.346;13.096;2023-07-08T05:06:58;12.30;;;10.07;;
2618;SDS011;1319;52.346;13.096;2023-07-08T05:09:23;13.83;;;10.30;;
2618;SDS011;1319;52.346;13.096;2023-07-08T05:11:50;13.50;;;9.40;;
2618;SDS011;1319;52.346;13.096;2023-07-08T05:14:16;12.00;;;9.40;;
2618;SDS011;1319;52.346;13.096;2023-07-08T05:16:41;10.90;;;8.53;;
2618;SDS011;1319;52.346;13.096;2023-07-08T05:19:06;9.80;;;8.47;;
2618;SDS011;1319;52.346;13.096;2023-07-08T05:21:32;11.17;;;8.50;;
2618;SDS011;1319;52.346;13.096;2023-07-08T05:24:00;11.57;;;8.83;;
2618;SDS011;1319;52.346;13.096;2023-07-08T05:26:25;10.93;;;8.50;;
2618;SDS011;1319;52.346;13.096;2023-07-08T05:28:50;9.13;;;8.20;;
2618;SDS011;1319;52.346;13.096;2023-07-08T05:31:16;9.17;;;8.03;;
2618;SDS011;1319;52.346;13.096;2023-07-08T05:33:41;8.80;;;7.90;;
2618;SDS011;1319;52.346;13.096;2023-07-08T05:36:06;11.67;;;8.27;;
2618;SDS011;1319;52.346;13.096;2023-07-08T05:38:32;9.90;;;8.10;;
2618;SDS011;1319;52.346;13.096;2023-07-08T05:40:58;11.40;;;7.53;;
2618;SDS011;1319;52.346;13.096;2023-07-08T05:43:23;9.40;;;7.50;;
2618;SDS011;1319;52.346;13.096;2023-07-08T05:45:49;8.37;;;6.60;;
2618;SDS011;1319;52.346;13.096;2023-07-08T05:48:14;7.87;;;6.67;;
2618;SDS011;1319;52.346;13.096;2023-07-08T05:50:40;9.67;;;6.60;;
2618;SDS011;1319;52.346;13.096;2023-07-08T05:53:05;10.17;;;7.43;;
2618;SDS011;1319;52.346;13.096;2023-07-08T05:55:31;8.17;;;6.43;;
2618;SDS011;1319;52.346;13.096;2023-07-08T05:57:56;8.80;;;6.60;;
2618;SDS011;1319;52.346;13.096;2023-07-08T06:00:22;8.80;;;6.70;;
2618;SDS011;1319;52.346;13.096;2023-07-08T06:02:47;9.77;;;6.50;;
2618;SDS011;1319;52.346;13.096;2023-07-08T06:05:12;7.10;;;6.20;;
2618;SDS011;1319;52.346;13.096;2023-07-08T06:07:38;7.23;;;6.23;;
2618;SDS011;1319;52.346;13.096;2023-07-08T06:10:03;7.33;;;6.07;;
2618;SDS011;1319;52.346;13.096;2023-07-08T06:12:29;9.90;;;5.63;;
2618;SDS011;1319;52.346;13.096;2023-07-08T06:14:55;12.87;;;6.13;;
2618;SDS011;1319;52.346;13.096;2023-07-08T06:17:20;11.67;;;6.77;;
2618;SDS011;1319;52.346;13.096;2023-07-08T06:19:45;7.57;;;5.83;;
2618;SDS011;1319;52.346;13.096;2023-07-08T06:22:11;7.10;;;5.43;;
2618;SDS011;1319;52.346;13.096;2023-07-08T06:24:36;9.57;;;5.67;;
2618;SDS011;1319;52.346;13.096;2023-07-08T06:27:01;8.53;;;5.87;;
2618;SDS011;1319;52.346;13.096;2023-07-08T06:29:26;7.30;;;5.50;;
2618;SDS011;1319;52.346;13.096;2023-07-08T06:31:52;7.27;;;5.50;;
2618;SDS011;1319;52.346;13.096;2023-07-08T06:34:17;6.10;;;5.50;;
2618;SDS011;1319;52.346;13.096;2023-07-08T06:36:44;7.27;;;5.10;;
2618;SDS011;1319;52.346;13.096;2023-07-08T06:39:09;7.03;;;5.70;;
2618;SDS011;1319;52.346;13.096;2023-07-08T06:41:36;7.00;;;5.40;;
2618;SDS011;1319;52.346;13.096;2023-07-08T06:44:01;6.20;;;5.10;;
2618;SDS011;1319;52.346;13.096;2023-07-08T06:46:26;11.93;;;5.03;;
2618;SDS011;1319;52.346;13.096;2023-07-08T06:48:51;6.50;;;5.27;;
2618;SDS011;1319;52.346;13.096;2023-07-08T06:51:18;6.77;;;4.87;;
2618;SDS011;1319;52.346;13.096;2023-07-08T06:53:43;5.53;;;4.43;;
2618;SDS011;1319;52.346;13.096;2023-07-08T06:56:09;6.40;;;4.60;;
2618;SDS011;1319;52.346;13.096;2023-07-08T06:58:34;8.03;;;4.30;;
2618;SDS011;1319;52.346;13.096;2023-07-08T07:00:59;7.13;;;4.10;;
2618;SDS011;1319;52.346;13.096;2023-07-08T07:03:24;5.50;;;4.23;;
2618;SDS011;1319;52.346;13.096;2023-07-08T07:05:50;7.30;;;4.70;;
2618;SDS011;1319;52.346;13.096;2023-07-08T07:08:15;8.53;;;4.80;;
2618;SDS011;1319;52.346;13.096;2023-07-08T07:10:40;9.40;;;4.63;;
2618;SDS011;1319;52.346;13.096;2023-07-08T07:13:05;8.67;;;4.60;;
2618;SDS011;1319;52.346;13.096;2023-07-08T07:15:30;4.83;;;4.33;;
2618;SDS011;1319;52.346;13.096;2023-07-08T07:17:57;10.07;;;4.30;;
2618;SDS011;1319;52.346;13.096;2023-07-08T07:20:22;14.63;;;4.50;;
2618;SDS011;1319;52.346;13.096;2023-07-08T07:22:47;6.77;;;4.33;;
2618;SDS011;1319;52.346;13.096;2023-07-08T07:25:12;6.78;;;3.80;;
2618;SDS011;1319;52.346;13.096;2023-07-08T07:27:38;5.40;;;4.00;;
2618;SDS011;1319;52.346;13.096;2023-07-08T07:30:03;6.57;;;4.13;;
2618;SDS011;1319;52.346;13.096;2023-07-08T07:32:28;6.97;;;4.53;;
2618;SDS011;1319;52.346;13.096;2023-07-08T07:34:54;7.13;;;4.18;;
2618;SDS011;1319;52.346;13.096;2023-07-08T07:37:20;7.95;;;3.72;;
2618;SDS011;1319;52.346;13.096;2023-07-08T07:39:46;8.07;;;4.40;;
2618;SDS011;1319;52.346;13.096;2023-07-08T07:42:12;7.65;;;3.70;;
2618;SDS011;1319;52.346;13.096;2023-07-08T07:44:38;5.38;;;3.85;;
2618;SDS011;1319;52.346;13.096;2023-07-08T07:47:07;9.68;;;3.90;;
2618;SDS011;1319;52.346;13.096;2023-07-08T07:49:32;6.28;;;4.43;;
2618;SDS011;1319;52.346;13.096;2023-07-08T07:51:57;11.32;;;4.05;;
2618;SDS011;1319;52.346;13.096;2023-07-08T07:54:23;5.05;;;4.47;;
2618;SDS011;1319;52.346;13.096;2023-07-08T07:56:48;6.03;;;3.83;;
2618;SDS011;1319;52.346;13.096;2023-07-08T07:59:13;5.78;;;3.42;;
2618;SDS011;1319;52.346;13.096;2023-07-08T08:01:38;5.75;;;3.40;;
2618;SDS011;1319;52.346;13.096;2023-07-08T08:04:04;5.18;;;3.40;;
2618;SDS011;1319;52.346;13.096;2023-07-08T08:06:29;3.67;;;3.22;;
2618;SDS011;1319;52.346;13.096;2023-07-08T08:08:54;5.72;;;3.40;;
2618;SDS011;1319;52.346;13.096;2023-07-08T08:11:21;5.38;;;3.13;;
2618;SDS011;1319;52.346;13.096;2023-07-08T08:13:46;5.72;;;3.08;;
2618;SDS011;1319;52.346;13.096;2023-07-08T08:16:12;6.55;;;3.55;;
2618;SDS011;1319;52.346;13.096;2023-07-08T08:18:37;5.88;;;3.40;;
2618;SDS011;1319;52.346;13.096;2023-07-08T08:21:02;5.10;;;3.55;;
2618;SDS011;1319;52.346;13.096;2023-07-08T08:23:27;3.10;;;2.90;;
2618;SDS011;1319;52.346;13.096;2023-07-08T08:25:52;4.05;;;2.90;;
2618;SDS011;1319;52.346;13.096;2023-07-08T08:28:18;4.82;;;2.97;;
2618;SDS011;1319;52.346;13.096;2023-07-08T08:30:47;7.03;;;2.80;;
2618;SDS011;1319;52.346;13.096;2023-07-08T08:33:12;5.35;;;3.03;;
2618;SDS011;1319;52.346;13.096;2023-07-08T08:35:37;4.90;;;2.65;;
2618;SDS011;1319;52.346;13.096;2023-07-08T08:38:02;3.72;;;3.10;;
2618;SDS011;1319;52.346;13.096;2023-07-08T08:40:28;3.85;;;3.38;;
2618;SDS011;1319;52.346;13.096;2023-07-08T08:45:25;3.50;;;2.42;;
2618;SDS011;1319;52.346;13.096;2023-07-08T08:47:53;7.82;;;3.30;;
2618;SDS011;1319;52.346;13.096;2023-07-08T08:52:44;5.35;;;2.90;;
2618;SDS011;1319;52.346;13.096;2023-07-08T08:55:13;5.55;;;2.83;;
2618;SDS011;1319;52.346;13.096;2023-07-08T08:57:43;4.05;;;2.90;;
2618;SDS011;1319;52.346;13.096;2023-07-08T09:00:10;2.97;;;2.63;;
2618;SDS011;1319;52.346;13.096;2023-07-08T09:02:39;2.67;;;2.47;;
2618;SDS011;1319;52.346;13.096;2023-07-08T09:05:09;6.60;;;2.85;;
2618;SDS011;1319;52.346;13.096;2023-07-08T09:08:31;2.97;;;2.70;;
2618;SDS011;1319;52.346;13.096;2023-07-08T09:12:45;2.85;;;2.65;;
2618;SDS011;1319;52.346;13.096;2023-07-08T09:15:11;3.47;;;2.70;;
2618;SDS011;1319;52.346;13.096;2023-07-08T09:17:37;5.60;;;2.90;;
2618;SDS011;1319;52.346;13.096;2023-07-08T09:24:59;2.95;;;2.65;;
2618;SDS011;1319;52.346;13.096;2023-07-08T09:27:26;2.70;;;2.50;;
2618;SDS011;1319;52.346;13.096;2023-07-08T09:29:52;3.17;;;2.88;;
2618;SDS011;1319;52.346;13.096;2023-07-08T09:32:18;4.55;;;2.78;;
2618;SDS011;1319;52.346;13.096;2023-07-08T09:34:45;6.88;;;2.88;;
2618;SDS011;1319;52.346;13.096;2023-07-08T09:37:20;3.35;;;2.80;;
2618;SDS011;1319;52.346;13.096;2023-07-08T09:39:45;2.95;;;2.63;;
2618;SDS011;1319;52.346;13.096;2023-07-08T09:42:12;3.67;;;2.90;;
2618;SDS011;1319;52.346;13.096;2023-07-08T09:44:38;5.50;;;2.60;;
2618;SDS011;1319;52.346;13.096;2023-07-08T09:47:15;2.88;;;2.60;;
2618;SDS011;1319;52.346;13.096;2023-07-08T09:49:44;8.75;;;2.70;;
2618;SDS011;1319;52.346;13.096;2023-07-08T09:52:11;3.88;;;2.72;;
2618;SDS011;1319;52.346;13.096;2023-07-08T09:54:37;5.63;;;3.17;;
2618;SDS011;1319;52.346;13.096;2023-07-08T09:59:38;3.50;;;2.65;;
2618;SDS011;1319;52.346;13.096;2023-07-08T10:02:15;3.88;;;2.38;;
2618;SDS011;1319;52.346;13.096;2023-07-08T10:04:42;8.27;;;2.90;;
2618;SDS011;1319;52.346;13.096;2023-07-08T10:07:07;2.83;;;2.40;;
2618;SDS011;1319;52.346;13.096;2023-07-08T10:09:37;2.83;;;2.60;;
2618;SDS011;1319;52.346;13.096;2023-07-08T10:12:02;3.42;;;2.47;;
2618;SDS011;1319;52.346;13.096;2023-07-08T10:14:33;2.83;;;2.40;;
2618;SDS011;1319;52.346;13.096;2023-07-08T10:16:59;7.53;;;2.83;;
2618;SDS011;1319;52.346;13.096;2023-07-08T10:19:24;2.70;;;2.50;;
2618;SDS011;1319;52.346;13.096;2023-07-08T10:24:39;5.35;;;2.60;;
2618;SDS011;1319;52.346;13.096;2023-07-08T10:27:13;4.80;;;2.58;;
2618;SDS011;1319;52.346;13.096;2023-07-08T10:35:09;3.30;;;2.70;;
2618;SDS011;1319;52.346;13.096;2023-07-08T10:40:07;7.13;;;2.88;;
2618;SDS011;1319;52.346;13.096;2023-07-08T10:45:23;2.90;;;2.70;;
2618;SDS011;1319;52.346;13.096;2023-07-08T10:50:30;2.78;;;2.58;;
2618;SDS011;1319;52.346;13.096;2023-07-08T11:05:45;3.83;;;2.88;;
2618;SDS011;1319;52.346;13.096;2023-07-08T11:10:40;3.67;;;3.13;;
2618;SDS011;1319;52.346;13.096;2023-07-08T11:13:13;3.75;;;3.00;;
2618;SDS011;1319;52.346;13.096;2023-07-08T11:15:44;3.60;;;2.75;;
2618;SDS011;1319;52.346;13.096;2023-07-08T11:18:19;4.22;;;2.80;;
2618;SDS011;1319;52.346;13.096;2023-07-08T11:20:51;4.03;;;2.90;;
2618;SDS011;1319;52.346;13.096;2023-07-08T11:23:33;5.20;;;2.72;;
2618;SDS011;1319;52.346;13.096;2023-07-08T11:26:07;3.15;;;2.70;;
2618;SDS011;1319;52.346;13.096;2023-07-08T11:28:34;5.38;;;3.00;;
2618;SDS011;1319;52.346;13.096;2023-07-08T11:31:01;6.10;;;2.90;;
2618;SDS011;1319;52.346;13.096;2023-07-08T11:33:26;2.70;;;2.50;;
2618;SDS011;1319;52.346;13.096;2023-07-08T11:35:52;3.22;;;2.92;;
2618;SDS011;1319;52.346;13.096;2023-07-08T11:38:20;4.55;;;2.90;;
2618;SDS011;1319;52.346;13.096;2023-07-08T11:40:50;3.08;;;2.80;;
2618;SDS011;1319;52.346;13.096;2023-07-08T11:43:15;3.03;;;2.67;;
2618;SDS011;1319;52.346;13.096;2023-07-08T11:45:41;4.70;;;2.88;;
2618;SDS011;1319;52.346;13.096;2023-07-08T11:50:48;3.15;;;2.88;;
2618;SDS011;1319;52.346;13.096;2023-07-08T11:55:59;3.35;;;2.83;;
2618;SDS011;1319;52.346;13.096;2023-07-08T12:01:37;8.80;;;3.03;;
2618;SDS011;1319;52.346;13.096;2023-07-08T12:03:39;5.72;;;2.90;;
2618;SDS011;1319;52.346;13.096;2023-07-08T12:08:49;5.32;;;2.90;;
2618;SDS011;1319;52.346;13.096;2023-07-08T12:11:17;3.67;;;2.97;;
2618;SDS011;1319;52.346;13.096;2023-07-08T12:13:42;3.17;;;2.85;;
2618;SDS011;1319;52.346;13.096;2023-07-08T12:16:09;3.88;;;2.85;;
2618;SDS011;1319;52.346;13.096;2023-07-08T12:18:36;2.80;;;2.60;;
2618;SDS011;1319;52.346;13.096;2023-07-08T12:21:03;3.20;;;2.90;;
2618;SDS011;1319;52.346;13.096;2023-07-08T12:23:28;4.93;;;3.25;;
2618;SDS011;1319;52.346;13.096;2023-07-08T12:25:54;5.03;;;3.20;;
2618;SDS011;1319;52.346;13.096;2023-07-08T12:28:20;3.40;;;2.92;;
2618;SDS011;1319;52.346;13.096;2023-07-08T12:30:45;4.95;;;3.17;;
2618;SDS011;1319;52.346;13.096;2023-07-08T12:33:16;3.08;;;2.70;;
2618;SDS011;1319;52.346;13.096;2023-07-08T12:35:43;3.13;;;2.85;;
2618;SDS011;1319;52.346;13.096;2023-07-08T12:38:20;3.25;;;2.95;;
2618;SDS011;1319;52.346;13.096;2023-07-08T12:40:46;3.63;;;2.92;;
2618;SDS011;1319;52.346;13.096;2023-07-08T12:43:12;6.68;;;3.00;;
2618;SDS011;1319;52.346;13.096;2023-07-08T12:45:37;3.92;;;2.88;;
2618;SDS011;1319;52.346;13.096;2023-07-08T12:48:03;3.83;;;2.97;;
2618;SDS011;1319;52.346;13.096;2023-07-08T12:50:28;3.08;;;2.80;;
2618;SDS011;1319;52.346;13.096;2023-07-08T12:52:53;3.17;;;2.97;;
2618;SDS011;1319;52.346;13.096;2023-07-08T12:55:18;4.20;;;3.03;;
2618;SDS011;1319;52.346;13.096;2023-07-08T12:57:45;7.03;;;3.03;;
2618;SDS011;1319;52.346;13.096;2023-07-08T13:00:15;4.65;;;3.20;;
2618;SDS011;1319;52.346;13.096;2023-07-08T13:02:43;3.60;;;3.15;;
2618;SDS011;1319;52.346;13.096;2023-07-08T13:05:09;5.97;;;2.75;;
2618;SDS011;1319;52.346;13.096;2023-07-08T13:07:38;3.17;;;2.97;;
2618;SDS011;1319;52.346;13.096;2023-07-08T13:10:05;3.22;;;3.03;;
2618;SDS011;1319;52.346;13.096;2023-07-08T13:12:31;4.18;;;2.92;;
2618;SDS011;1319;52.346;13.096;2023-07-08T13:14:58;3.50;;;3.15;;
2618;SDS011;1319;52.346;13.096;2023-07-08T13:17:24;3.40;;;3.10;;
2618;SDS011;1319;52.346;13.096;2023-07-08T13:19:50;4.35;;;3.25;;
2618;SDS011;1319;52.346;13.096;2023-07-08T13:22:16;3.42;;;2.63;;
2618;SDS011;1319;52.346;13.096;2023-07-08T13:24:42;3.08;;;2.83;;
2618;SDS011;1319;52.346;13.096;2023-07-08T13:27:22;4.15;;;3.03;;
2618;SDS011;1319;52.346;13.096;2023-07-08T13:29:47;3.10;;;2.63;;
2618;SDS011;1319;52.346;13.096;2023-07-08T13:32:13;3.20;;;2.72;;
2618;SDS011;1319;52.346;13.096;2023-07-08T13:34:38;5.53;;;3.15;;
2618;SDS011;1319;52.346;13.096;2023-07-08T13:37:04;3.50;;;3.10;;
2618;SDS011;1319;52.346;13.096;2023-07-08T13:39:34;3.50;;;3.20;;
2618;SDS011;1319;52.346;13.096;2023-07-08T13:42:01;3.72;;;2.90;;
2618;SDS011;1319;52.346;13.096;2023-07-08T13:44:27;3.33;;;2.70;;
2618;SDS011;1319;52.346;13.096;2023-07-08T13:46:53;4.63;;;3.45;;
2618;SDS011;1319;52.346;13.096;2023-07-08T13:49:27;6.25;;;3.10;;
2618;SDS011;1319;52.346;13.096;2023-07-08T13:52:04;3.63;;;3.33;;
2618;SDS011;1319;52.346;13.096;2023-07-08T13:54:33;3.40;;;3.10;;
2618;SDS011;1319;52.346;13.096;2023-07-08T13:57:00;3.08;;;2.88;;
2618;SDS011;1319;52.346;13.096;2023-07-08T13:59:25;3.38;;;3.08;;
2618;SDS011;1319;52.346;13.096;2023-07-08T14:01:51;3.42;;;3.10;;
2618;SDS011;1319;52.346;13.096;2023-07-08T14:04:18;3.55;;;3.20;;
2618;SDS011;1319;52.346;13.096;2023-07-08T14:06:44;3.33;;;2.90;;
2618;SDS011;1319;52.346;13.096;2023-07-08T14:09:14;3.20;;;3.00;;
2618;SDS011;1319;52.346;13.096;2023-07-08T14:11:40;5.93;;;2.92;;
2618;SDS011;1319;52.346;13.096;2023-07-08T14:14:05;4.40;;;2.92;;
2618;SDS011;1319;52.346;13.096;2023-07-08T14:16:31;3.58;;;3.25;;
2618;SDS011;1319;52.346;13.096;2023-07-08T14:18:58;3.13;;;2.80;;
2618;SDS011;1319;52.346;13.096;2023-07-08T14:21:24;5.38;;;2.80;;
2618;SDS011;1319;52.346;13.096;2023-07-08T14:23:49;3.03;;;2.75;;
2618;SDS011;1319;52.346;13.096;2023-07-08T14:26:15;4.47;;;3.35;;
2618;SDS011;1319;52.346;13.096;2023-07-08T14:28:40;7.82;;;3.00;;
2618;SDS011;1319;52.346;13.096;2023-07-08T14:31:09;3.85;;;3.33;;
2618;SDS011;1319;52.346;13.096;2023-07-08T14:33:35;4.43;;;3.00;;
2618;SDS011;1319;52.346;13.096;2023-07-08T14:36:00;3.45;;;3.15;;
2618;SDS011;1319;52.346;13.096;2023-07-08T14:38:25;6.90;;;3.00;;
2618;SDS011;1319;52.346;13.096;2023-07-08T14:40:50;5.47;;;3.17;;
2618;SDS011;1319;52.346;13.096;2023-07-08T14:43:17;5.72;;;3.17;;
2618;SDS011;1319;52.346;13.096;2023-07-08T14:45:48;5.93;;;3.20;;
2618;SDS011;1319;52.346;13.096;2023-07-08T14:48:14;3.75;;;3.05;;
2618;SDS011;1319;52.346;13.096;2023-07-08T14:50:39;3.80;;;3.42;;
2618;SDS011;1319;52.346;13.096;2023-07-08T14:53:05;8.15;;;3.20;;
2618;SDS011;1319;52.346;13.096;2023-07-08T14:55:30;5.47;;;2.85;;
2618;SDS011;1319;52.346;13.096;2023-07-08T14:57:55;4.22;;;2.92;;
2618;SDS011;1319;52.346;13.096;2023-07-08T15:00:21;3.35;;;2.78;;
2618;SDS011;1319;52.346;13.096;2023-07-08T15:02:47;3.75;;;3.00;;
2618;SDS011;1319;52.346;13.096;2023-07-08T15:05:20;3.50;;;3.00;;
2618;SDS011;1319;52.346;13.096;2023-07-08T15:07:56;3.42;;;3.13;;
2618;SDS011;1319;52.346;13.096;2023-07-08T15:10:28;5.22;;;3.47;;
2618;SDS011;1319;52.346;13.096;2023-07-08T15:12:54;6.95;;;3.75;;
2618;SDS011;1319;52.346;13.096;2023-07-08T15:15:29;5.13;;;3.08;;
2618;SDS011;1319;52.346;13.096;2023-07-08T15:17:55;4.85;;;3.50;;
2618;SDS011;1319;52.346;13.096;2023-07-08T15:20:21;3.63;;;3.20;;
2618;SDS011;1319;52.346;13.096;2023-07-08T15:22:47;5.10;;;3.00;;
2618;SDS011;1319;52.346;13.096;2023-07-08T15:25:13;5.87;;;3.10;;
2618;SDS011;1319;52.346;13.096;2023-07-08T15:27:39;3.47;;;3.17;;
2618;SDS011;1319;52.346;13.096;2023-07-08T15:30:08;4.38;;;3.13;;
2618;SDS011;1319;52.346;13.096;2023-07-08T15:32:39;5.22;;;3.30;;
2618;SDS011;1319;52.346;13.096;2023-07-08T15:35:06;7.55;;;3.00;;
2618;SDS011;1319;52.346;13.096;2023-07-08T15:37:32;5.07;;;2.90;;
2618;SDS011;1319;52.346;13.096;2023-07-08T15:39:57;5.27;;;3.40;;
2618;SDS011;1319;52.346;13.096;2023-07-08T15:42:22;3.50;;;3.20;;
2618;SDS011;1319;52.346;13.096;2023-07-08T15:44:48;3.72;;;3.22;;
2618;SDS011;1319;52.346;13.096;2023-07-08T15:47:17;3.38;;;2.92;;
2618;SDS011;1319;52.346;13.096;2023-07-08T15:49:42;5.10;;;3.13;;
2618;SDS011;1319;52.346;13.096;2023-07-08T15:52:07;6.82;;;3.38;;
2618;SDS011;1319;52.346;13.096;2023-07-08T15:54:32;5.35;;;3.20;;
2618;SDS011;1319;52.346;13.096;2023-07-08T15:56:58;6.32;;;3.40;;